sensor_id;sensor_type;location;lat;lon;timestamp;pressure;altitude;pressure_sealevel;temperature;humidity
30339;BME280;795;49.296;11.348;2023-04-15T00:01:51;95307.50;;;3.96;100.00
30339;BME280;795;49.296;11.348;2023-04-15T00:04:19;95353.03;;;4.27;100.00
30339;BME280;795;49.296;11.348;2023-04-15T00:06:51;95370.84;;;4.34;100.00
30339;BME280;795;49.296;11.348;2023-04-15T00:09:20;95384.38;;;4.49;100.00
30339;BME280;795;49.296;11.348;2023-04-15T00:11:47;95366.09;;;4.46;100.00
30339;BME280;795;49.296;11.348;2023-04-15T00:14:14;95260.66;;;3.87;100.00
30339;BME280;795;49.296;11.348;2023-04-15T00:16:41;95349.00;;;4.48;100.00
30339;BME280;795;49.296;11.348;2023-04-15T00:19:08;95322.66;;;4.29;100.00
30339;BME280;795;49.296;11.348;2023-04-15T00:21:35;95368.31;;;4.58;100.00
30339;BME280;795;49.296;11.348;2023-04-15T00:24:02;95290.03;;;4.11;100.00
30339;BME280;795;49.296;11.348;2023-04-15T00:26:29;95310.84;;;4.24;100.00
30339;BME280;795;49.296;11.348;2023-04-15T00:28:56;95318.72;;;4.33;100.00
30339;BME280;795;49.296;11.348;2023-04-15T00:31:24;95245.97;;;4.00;100.00
30339;BME280;795;49.296;11.348;2023-04-15T00:33:51;95327.13;;;4.54;100.00
30339;BME280;795;49.296;11.348;2023-04-15T00:36:18;95342.16;;;4.72;100.00
30339;BME280;795;49.296;11.348;2023-04-15T00:38:45;95347.59;;;4.70;100.00
30339;BME280;795;49.296;11.348;2023-04-15T00:41:13;95292.81;;;4.35;100.00
30339;BME280;795;49.296;11.348;2023-04-15T00:43:41;95264.75;;;4.33;100.00
30339;BME280;795;49.296;11.348;2023-04-15T00:46:11;95267.72;;;4.30;100.00
30339;BME280;795;49.296;11.348;2023-04-15T00:48:39;95288.22;;;4.45;100.00
30339;BME280;795;49.296;11.348;2023-04-15T00:51:07;95249.00;;;4.06;100.00
30339;BME280;795;49.296;11.348;2023-04-15T00:53:35;95237.53;;;4.05;100.00
30339;BME280;795;49.296;11.348;2023-04-15T00:56:02;95286.34;;;4.38;100.00
30339;BME280;795;49.296;11.348;2023-04-15T00:58:29;95323.50;;;4.63;100.00
30339;BME280;795;49.296;11.348;2023-04-15T01:00:57;95257.56;;;4.25;100.00
30339;BME280;795;49.296;11.348;2023-04-15T01:03:24;95303.88;;;4.56;100.00
30339;BME280;795;49.296;11.348;2023-04-15T01:05:52;95284.78;;;4.53;100.00
30339;BME280;795;49.296;11.348;2023-04-15T01:08:28;95253.94;;;4.34;100.00
30339;BME280;795;49.296;11.348;2023-04-15T01:11:01;95250.78;;;4.31;100.00
30339;BME280;795;49.296;11.348;2023-04-15T01:13:33;95242.97;;;4.29;100.00
30339;BME280;795;49.296;11.348;2023-04-15T01:16:00;95258.75;;;4.31;100.00
30339;BME280;795;49.296;11.348;2023-04-15T01:18:29;95260.41;;;4.32;100.00
30339;BME280;795;49.296;11.348;2023-04-15T01:20:59;95258.28;;;4.35;100.00
30339;BME280;795;49.296;11.348;2023-04-15T01:23:28;95254.47;;;4.38;100.00
30339;BME280;795;49.296;11.348;2023-04-15T01:25:56;95266.59;;;4.40;100.00
30339;BME280;795;49.296;11.348;2023-04-15T01:28:24;95241.16;;;4.30;100.00
30339;BME280;795;49.296;11.348;2023-04-15T01:31:12;95285.97;;;4.66;100.00
30339;BME280;795;49.296;11.348;2023-04-15T01:33:42;95274.19;;;4.69;100.00
30339;BME280;795;49.296;11.348;2023-04-15T01:36:09;95252.84;;;4.45;100.00
30339;BME280;795;49.296;11.348;2023-04-15T01:38:38;95276.84;;;4.69;100.00
30339;BME280;795;49.296;11.348;2023-04-15T01:41:05;95212.09;;;4.28;100.00
30339;BME280;795;49.296;11.348;2023-04-15T01:43:35;95292.63;;;4.70;100.00
30339;BME280;795;49.296;11.348;2023-04-15T01:46:03;95227.56;;;4.33;100.00
30339;BME280;795;49.296;11.348;2023-04-15T01:48:30;95208.06;;;4.24;100.00
30339;BME280;795;49.296;11.348;2023-04-15T01:50:58;95190.28;;;4.17;100.00
30339;BME280;795;49.296;11.348;2023-04-15T01:53:25;95203.13;;;4.29;100.00
30339;BME280;795;49.296;11.348;2023-04-15T01:55:52;95210.78;;;4.32;100.00
30339;BME280;795;49.296;11.348;2023-04-15T01:58:19;95215.28;;;4.40;100.00
30339;BME280;795;49.296;11.348;2023-04-15T02:00:47;95272.88;;;4.73;100.00
30339;BME280;795;49.296;11.348;2023-04-15T02:03:14;95162.03;;;3.99;100.00
30339;BME280;795;49.296;11.348;2023-04-15T02:05:41;95275.22;;;4.76;100.00
30339;BME280;795;49.296;11.348;2023-04-15T02:08:09;95208.78;;;4.26;100.00
30339;BME280;795;49.296;11.348;2023-04-15T02:10:36;95227.09;;;4.45;100.00
30339;BME280;795;49.296;11.348;2023-04-15T02:13:03;95189.13;;;4.19;100.00
30339;BME280;795;49.296;11.348;2023-04-15T02:15:30;95249.75;;;4.57;100.00
30339;BME280;795;49.296;11.348;2023-04-15T02:17:57;95205.94;;;4.28;100.00
30339;BME280;795;49.296;11.348;2023-04-15T02:20:26;95293.66;;;4.78;100.00
30339;BME280;795;49.296;11.348;2023-04-15T02:22:53;95292.66;;;4.79;100.00
30339;BME280;795;49.296;11.348;2023-04-15T02:25:20;95180.00;;;4.14;100.00
30339;BME280;795;49.296;11.348;2023-04-15T02:27:47;95261.69;;;4.61;100.00
30339;BME280;795;49.296;11.348;2023-04-15T02:30:14;95231.94;;;4.50;100.00
30339;BME280;795;49.296;11.348;2023-04-15T02:32:41;95192.63;;;4.20;100.00
30339;BME280;795;49.296;11.348;2023-04-15T02:35:10;95245.34;;;4.40;100.00
30339;BME280;795;49.296;11.348;2023-04-15T02:37:38;95188.16;;;4.20;100.00
30339;BME280;795;49.296;11.348;2023-04-15T02:40:12;95209.75;;;4.25;100.00
30339;BME280;795;49.296;11.348;2023-04-15T02:42:40;95292.16;;;4.75;100.00
30339;BME280;795;49.296;11.348;2023-04-15T02:45:09;95290.78;;;4.63;100.00
30339;BME280;795;49.296;11.348;2023-04-15T02:47:38;95173.31;;;4.01;100.00
30339;BME280;795;49.296;11.348;2023-04-15T02:50:11;95182.66;;;4.14;100.00
30339;BME280;795;49.296;11.348;2023-04-15T02:52:40;95269.19;;;4.66;100.00
30339;BME280;795;49.296;11.348;2023-04-15T02:55:08;95232.56;;;4.44;100.00
30339;BME280;795;49.296;11.348;2023-04-15T02:57:35;95259.41;;;4.66;100.00
30339;BME280;795;49.296;11.348;2023-04-15T03:00:06;95279.69;;;4.76;100.00
30339;BME280;795;49.296;11.348;2023-04-15T03:02:37;95240.41;;;4.45;100.00
30339;BME280;795;49.296;11.348;2023-04-15T03:05:10;95214.97;;;4.43;100.00
30339;BME280;795;49.296;11.348;2023-04-15T03:07:37;95196.63;;;4.24;100.00
30339;BME280;795;49.296;11.348;2023-04-15T03:10:07;95259.97;;;4.44;100.00
30339;BME280;795;49.296;11.348;2023-04-15T03:12:34;95236.06;;;4.44;100.00
30339;BME280;795;49.296;11.348;2023-04-15T03:15:01;95258.53;;;4.58;100.00
30339;BME280;795;49.296;11.348;2023-04-15T03:17:28;95222.06;;;4.34;100.00
30339;BME280;795;49.296;11.348;2023-04-15T03:19:55;95271.00;;;4.57;100.00
30339;BME280;795;49.296;11.348;2023-04-15T03:22:23;95175.47;;;4.06;100.00
30339;BME280;795;49.296;11.348;2023-04-15T03:24:49;95259.19;;;4.52;100.00
30339;BME280;795;49.296;11.348;2023-04-15T03:27:16;95215.22;;;4.24;100.00
30339;BME280;795;49.296;11.348;2023-04-15T03:29:43;95277.66;;;4.61;100.00
30339;BME280;795;49.296;11.348;2023-04-15T03:32:10;95287.63;;;4.67;100.00
30339;BME280;795;49.296;11.348;2023-04-15T03:34:38;95229.38;;;4.32;100.00
30339;BME280;795;49.296;11.348;2023-04-15T03:37:05;95262.97;;;4.49;100.00
30339;BME280;795;49.296;11.348;2023-04-15T03:39:32;95220.38;;;4.25;100.00
30339;BME280;795;49.296;11.348;2023-04-15T03:42:00;95249.47;;;4.35;100.00
30339;BME280;795;49.296;11.348;2023-04-15T03:44:27;95292.75;;;4.61;100.00
30339;BME280;795;49.296;11.348;2023-04-15T03:46:54;95221.34;;;4.16;100.00
30339;BME280;795;49.296;11.348;2023-04-15T03:49:21;95216.81;;;4.09;100.00
30339;BME280;795;49.296;11.348;2023-04-15T03:51:49;95285.09;;;4.58;100.00
30339;BME280;795;49.296;11.348;2023-04-15T03:54:16;95215.34;;;4.14;100.00
30339;BME280;795;49.296;11.348;2023-04-15T03:56:43;95281.63;;;4.57;100.00
30339;BME280;795;49.296;11.348;2023-04-15T03:59:10;95222.97;;;4.17;100.00
30339;BME280;795;49.296;11.348;2023-04-15T04:01:37;95205.66;;;4.05;100.00
30339;BME280;795;49.296;11.348;2023-04-15T04:04:04;95231.47;;;4.21;100.00
30339;BME280;795;49.296;11.348;2023-04-15T04:06:31;95289.91;;;4.54;100.00
30339;BME280;795;49.296;11.348;2023-04-15T04:08:58;95229.97;;;4.18;100.00
30339;BME280;795;49.296;11.348;2023-04-15T04:11:25;95182.13;;;4.02;100.00
30339;BME280;795;49.296;11.348;2023-04-15T04:13:53;95237.81;;;4.28;100.00
30339;BME280;795;49.296;11.348;2023-04-15T04:16:20;95216.34;;;4.13;100.00
30339;BME280;795;49.296;11.348;2023-04-15T04:18:47;95237.16;;;4.26;100.00
30339;BME280;795;49.296;11.348;2023-04-15T04:21:15;95285.44;;;4.55;100.00
30339;BME280;795;49.296;11.348;2023-04-15T04:23:42;95228.00;;;4.20;100.00
30339;BME280;795;49.296;11.348;2023-04-15T04:26:09;95285.28;;;4.56;100.00
30339;BME280;795;49.296;11.348;2023-04-15T04:28:36;95241.28;;;4.20;100.00
30339;BME280;795;49.296;11.348;2023-04-15T04:31:08;95292.75;;;4.53;100.00
30339;BME280;795;49.296;11.348;2023-04-15T04:33:35;95289.31;;;4.68;100.00
30339;BME280;795;49.296;11.348;2023-04-15T04:36:02;95243.31;;;4.34;100.00
30339;BME280;795;49.296;11.348;2023-04-15T04:38:29;95290.28;;;4.59;100.00
30339;BME280;795;49.296;11.348;2023-04-15T04:40:56;95252.25;;;4.25;100.00
30339;BME280;795;49.296;11.348;2023-04-15T04:43:23;95270.28;;;4.47;100.00
30339;BME280;795;49.296;11.348;2023-04-15T04:45:50;95288.59;;;4.58;100.00
30339;BME280;795;49.296;11.348;2023-04-15T04:48:17;95289.63;;;4.65;100.00
30339;BME280;795;49.296;11.348;2023-04-15T04:50:45;95291.56;;;4.55;100.00
30339;BME280;795;49.296;11.348;2023-04-15T04:53:13;95216.16;;;4.07;100.00
30339;BME280;795;49.296;11.348;2023-04-15T04:55:40;95266.59;;;4.40;100.00
30339;BME280;795;49.296;11.348;2023-04-15T04:58:08;95237.28;;;4.24;100.00
30339;BME280;795;49.296;11.348;2023-04-15T05:00:35;95299.44;;;4.65;100.00
30339;BME280;795;49.296;11.348;2023-04-15T05:03:03;95240.53;;;4.36;100.00
30339;BME280;795;49.296;11.348;2023-04-15T05:05:31;95268.13;;;4.51;100.00
30339;BME280;795;49.296;11.348;2023-04-15T05:07:58;95268.47;;;4.48;100.00
30339;BME280;795;49.296;11.348;2023-04-15T05:10:25;95284.78;;;4.53;100.00
30339;BME280;795;49.296;11.348;2023-04-15T05:12:51;95279.28;;;4.54;100.00
30339;BME280;795;49.296;11.348;2023-04-15T05:15:18;95237.16;;;4.34;100.00
30339;BME280;795;49.296;11.348;2023-04-15T05:17:46;95283.94;;;4.60;100.00
30339;BME280;795;49.296;11.348;2023-04-15T05:20:13;95309.91;;;4.66;100.00
30339;BME280;795;49.296;11.348;2023-04-15T05:22:40;95287.09;;;4.56;100.00
30339;BME280;795;49.296;11.348;2023-04-15T05:25:08;95242.16;;;4.37;100.00
30339;BME280;795;49.296;11.348;2023-04-15T05:27:35;95243.50;;;4.41;100.00
30339;BME280;795;49.296;11.348;2023-04-15T05:30:03;95213.03;;;4.19;100.00
30339;BME280;795;49.296;11.348;2023-04-15T05:32:30;95221.34;;;4.16;100.00
30339;BME280;795;49.296;11.348;2023-04-15T05:34:57;95283.25;;;4.50;100.00
30339;BME280;795;49.296;11.348;2023-04-15T05:37:24;95266.44;;;4.42;100.00
30339;BME280;795;49.296;11.348;2023-04-15T05:39:51;95255.09;;;4.32;100.00
30339;BME280;795;49.296;11.348;2023-04-15T05:42:18;95237.78;;;4.20;100.00
30339;BME280;795;49.296;11.348;2023-04-15T05:44:45;95253.94;;;4.26;100.00
30339;BME280;795;49.296;11.348;2023-04-15T05:47:12;95336.91;;;4.88;100.00
30339;BME280;795;49.296;11.348;2023-04-15T05:49:39;95298.72;;;4.55;100.00
30339;BME280;795;49.296;11.348;2023-04-15T05:52:06;95328.03;;;4.71;100.00
30339;BME280;795;49.296;11.348;2023-04-15T05:54:33;95283.22;;;4.42;100.00
30339;BME280;795;49.296;11.348;2023-04-15T05:57:00;95222.97;;;4.09;100.00
30339;BME280;795;49.296;11.348;2023-04-15T05:59:27;95294.63;;;4.68;100.00
30339;BME280;795;49.296;11.348;2023-04-15T06:01:54;95308.09;;;4.75;100.00
30339;BME280;795;49.296;11.348;2023-04-15T06:04:21;95287.00;;;4.74;100.00
30339;BME280;795;49.296;11.348;2023-04-15T06:06:48;95227.38;;;4.34;100.00
30339;BME280;795;49.296;11.348;2023-04-15T06:09:15;95318.31;;;4.96;100.00
30339;BME280;795;49.296;11.348;2023-04-15T06:11:42;95263.38;;;4.62;100.00
30339;BME280;795;49.296;11.348;2023-04-15T06:14:09;95330.28;;;5.00;100.00
30339;BME280;795;49.296;11.348;2023-04-15T06:16:37;95267.34;;;4.58;100.00
30339;BME280;795;49.296;11.348;2023-04-15T06:19:04;95286.16;;;4.73;100.00
30339;BME280;795;49.296;11.348;2023-04-15T06:21:31;95281.31;;;4.68;100.00
30339;BME280;795;49.296;11.348;2023-04-15T06:23:59;95320.97;;;5.04;100.00
30339;BME280;795;49.296;11.348;2023-04-15T06:26:29;95230.28;;;4.57;100.00
30339;BME280;795;49.296;11.348;2023-04-15T06:28:56;95317.53;;;5.11;100.00
30339;BME280;795;49.296;11.348;2023-04-15T06:31:23;95286.41;;;5.04;100.00
30339;BME280;795;49.296;11.348;2023-04-15T06:33:50;95272.44;;;5.02;100.00
30339;BME280;795;49.296;11.348;2023-04-15T06:36:17;95322.75;;;5.37;100.00
30339;BME280;795;49.296;11.348;2023-04-15T06:38:45;95278.16;;;5.31;100.00
30339;BME280;795;49.296;11.348;2023-04-15T06:41:12;95181.13;;;4.61;100.00
30339;BME280;795;49.296;11.348;2023-04-15T06:43:39;95179.19;;;4.79;100.00
30339;BME280;795;49.296;11.348;2023-04-15T06:46:06;95246.72;;;5.26;100.00
30339;BME280;795;49.296;11.348;2023-04-15T06:48:33;95336.97;;;5.86;100.00
30339;BME280;795;49.296;11.348;2023-04-15T06:51:00;95305.47;;;5.73;100.00
30339;BME280;795;49.296;11.348;2023-04-15T06:53:27;95336.13;;;5.93;100.00
30339;BME280;795;49.296;11.348;2023-04-15T06:55:54;95242.22;;;5.43;100.00
30339;BME280;795;49.296;11.348;2023-04-15T06:58:22;95280.50;;;5.74;100.00
30339;BME280;795;49.296;11.348;2023-04-15T07:00:48;95248.56;;;5.58;100.00
30339;BME280;795;49.296;11.348;2023-04-15T07:03:16;95337.41;;;6.30;100.00
30339;BME280;795;49.296;11.348;2023-04-15T07:05:43;95245.25;;;5.64;100.00
30339;BME280;795;49.296;11.348;2023-04-15T07:08:10;95301.84;;;5.90;100.00
30339;BME280;795;49.296;11.348;2023-04-15T07:10:38;95340.25;;;6.28;100.00
30339;BME280;795;49.296;11.348;2023-04-15T07:13:05;95296.50;;;6.07;100.00
30339;BME280;795;49.296;11.348;2023-04-15T07:15:34;95345.72;;;6.51;100.00
30339;BME280;795;49.296;11.348;2023-04-15T07:18:01;95277.47;;;6.18;100.00
30339;BME280;795;49.296;11.348;2023-04-15T07:20:28;95278.53;;;6.00;100.00
30339;BME280;795;49.296;11.348;2023-04-15T07:22:55;95306.78;;;6.26;100.00
30339;BME280;795;49.296;11.348;2023-04-15T07:25:23;95335.44;;;6.32;100.00
30339;BME280;795;49.296;11.348;2023-04-15T07:27:51;95264.34;;;5.84;100.00
30339;BME280;795;49.296;11.348;2023-04-15T07:30:18;95324.25;;;6.36;100.00
30339;BME280;795;49.296;11.348;2023-04-15T07:32:45;95345.25;;;6.31;100.00
30339;BME280;795;49.296;11.348;2023-04-15T07:35:12;95320.13;;;6.10;100.00
30339;BME280;795;49.296;11.348;2023-04-15T07:37:40;95214.13;;;5.57;100.00
30339;BME280;795;49.296;11.348;2023-04-15T07:40:09;95299.63;;;6.18;100.00
30339;BME280;795;49.296;11.348;2023-04-15T07:42:37;95284.00;;;6.07;100.00
30339;BME280;795;49.296;11.348;2023-04-15T07:45:07;95249.56;;;5.97;100.00
30339;BME280;795;49.296;11.348;2023-04-15T07:47:35;95219.59;;;5.95;100.00
30339;BME280;795;49.296;11.348;2023-04-15T07:50:02;95291.25;;;6.45;100.00
30339;BME280;795;49.296;11.348;2023-04-15T07:52:29;95331.09;;;6.86;100.00
30339;BME280;795;49.296;11.348;2023-04-15T07:54:56;95323.81;;;6.80;100.00
30339;BME280;795;49.296;11.348;2023-04-15T07:57:23;95306.69;;;6.66;100.00
30339;BME280;795;49.296;11.348;2023-04-15T07:59:50;95250.31;;;6.30;100.00
30339;BME280;795;49.296;11.348;2023-04-15T08:03:34;95291.06;;;6.55;100.00
30339;BME280;795;49.296;11.348;2023-04-15T08:06:02;95292.63;;;6.80;100.00
30339;BME280;795;49.296;11.348;2023-04-15T08:08:29;95324.06;;;6.93;100.00
30339;BME280;795;49.296;11.348;2023-04-15T08:10:58;95310.69;;;6.62;100.00
30339;BME280;795;49.296;11.348;2023-04-15T08:13:25;95289.56;;;6.52;100.00
30339;BME280;795;49.296;11.348;2023-04-15T08:16:29;95321.09;;;6.33;100.00
30339;BME280;795;49.296;11.348;2023-04-15T08:18:56;95275.22;;;5.90;100.00
30339;BME280;795;49.296;11.348;2023-04-15T08:21:24;95332.59;;;6.33;100.00
30339;BME280;795;49.296;11.348;2023-04-15T08:23:52;95341.56;;;6.48;100.00
30339;BME280;795;49.296;11.348;2023-04-15T08:26:20;95220.28;;;5.65;100.00
30339;BME280;795;49.296;11.348;2023-04-15T08:28:48;95333.09;;;6.37;100.00
30339;BME280;795;49.296;11.348;2023-04-15T08:31:17;95343.59;;;6.30;100.00
30339;BME280;795;49.296;11.348;2023-04-15T08:33:45;95302.81;;;6.22;100.00
30339;BME280;795;49.296;11.348;2023-04-15T08:36:12;95336.91;;;6.42;100.00
30339;BME280;795;49.296;11.348;2023-04-15T08:38:39;95298.63;;;6.27;100.00
30339;BME280;795;49.296;11.348;2023-04-15T08:41:21;95346.06;;;6.48;100.00
30339;BME280;795;49.296;11.348;2023-04-15T08:44:04;95305.47;;;6.06;100.00
30339;BME280;795;49.296;11.348;2023-04-15T08:46:32;95346.94;;;6.16;100.00
30339;BME280;795;49.296;11.348;2023-04-15T08:49:04;95271.34;;;5.77;100.00
30339;BME280;795;49.296;11.348;2023-04-15T08:51:32;95240.25;;;5.53;100.00
30339;BME280;795;49.296;11.348;2023-04-15T08:54:01;95349.25;;;6.11;100.00
30339;BME280;795;49.296;11.348;2023-04-15T08:56:31;95318.81;;;5.89;100.00
30339;BME280;795;49.296;11.348;2023-04-15T08:59:00;95344.28;;;6.00;100.00
30339;BME280;795;49.296;11.348;2023-04-15T09:01:28;95329.13;;;5.92;100.00
30339;BME280;795;49.296;11.348;2023-04-15T09:03:58;95267.53;;;5.55;100.00
30339;BME280;795;49.296;11.348;2023-04-15T09:06:25;95369.44;;;5.97;100.00
30339;BME280;795;49.296;11.348;2023-04-15T09:08:52;95347.63;;;6.02;100.00
30339;BME280;795;49.296;11.348;2023-04-15T09:11:21;95199.00;;;5.17;100.00
30339;BME280;795;49.296;11.348;2023-04-15T09:13:49;95344.78;;;6.20;100.00
30339;BME280;795;49.296;11.348;2023-04-15T09:16:16;95282.00;;;6.01;100.00
30339;BME280;795;49.296;11.348;2023-04-15T09:18:43;95273.53;;;5.97;100.00
30339;BME280;795;49.296;11.348;2023-04-15T09:21:16;95334.78;;;6.22;100.00
30339;BME280;795;49.296;11.348;2023-04-15T09:24:00;95301.50;;;5.93;100.00
30339;BME280;795;49.296;11.348;2023-04-15T09:26:36;95337.13;;;6.25;100.00
30339;BME280;795;49.296;11.348;2023-04-15T09:29:09;95322.13;;;6.16;100.00
30339;BME280;795;49.296;11.348;2023-04-15T09:31:40;95332.44;;;6.11;100.00
30339;BME280;795;49.296;11.348;2023-04-15T09:34:08;95270.53;;;5.76;100.00
30339;BME280;795;49.296;11.348;2023-04-15T09:36:54;95371.72;;;6.33;100.00
30339;BME280;795;49.296;11.348;2023-04-15T09:39:22;95383.88;;;6.35;100.00
30339;BME280;795;49.296;11.348;2023-04-15T09:42:07;95318.34;;;5.86;100.00
30339;BME280;795;49.296;11.348;2023-04-15T09:44:35;95333.81;;;5.90;100.00
30339;BME280;795;49.296;11.348;2023-04-15T09:47:03;95298.53;;;5.88;100.00
30339;BME280;795;49.296;11.348;2023-04-15T09:49:30;95341.97;;;6.05;100.00
30339;BME280;795;49.296;11.348;2023-04-15T09:52:01;95306.16;;;5.99;100.00
30339;BME280;795;49.296;11.348;2023-04-15T09:54:37;95396.72;;;6.56;100.00
30339;BME280;795;49.296;11.348;2023-04-15T09:57:07;95368.91;;;6.26;100.00
30339;BME280;795;49.296;11.348;2023-04-15T09:59:35;95405.53;;;6.32;100.00
30339;BME280;795;49.296;11.348;2023-04-15T10:02:04;95393.38;;;6.38;100.00
30339;BME280;795;49.296;11.348;2023-04-15T10:04:40;95353.06;;;6.33;100.00
30339;BME280;795;49.296;11.348;2023-04-15T10:07:11;95368.88;;;6.42;100.00
30339;BME280;795;49.296;11.348;2023-04-15T10:09:39;95377.38;;;6.38;100.00
30339;BME280;795;49.296;11.348;2023-04-15T10:12:07;95322.78;;;6.18;100.00
30339;BME280;795;49.296;11.348;2023-04-15T10:14:37;95391.03;;;6.43;100.00
30339;BME280;795;49.296;11.348;2023-04-15T10:17:10;95208.63;;;5.10;100.00
30339;BME280;795;49.296;11.348;2023-04-15T10:19:39;95336.94;;;5.94;100.00
30339;BME280;795;49.296;11.348;2023-04-15T10:22:07;95410.03;;;6.40;100.00
30339;BME280;795;49.296;11.348;2023-04-15T10:24:34;95329.66;;;5.88;100.00
30339;BME280;795;49.296;11.348;2023-04-15T10:27:03;95353.09;;;6.09;100.00
30339;BME280;795;49.296;11.348;2023-04-15T10:29:31;95394.72;;;6.26;100.00
30339;BME280;795;49.296;11.348;2023-04-15T10:32:00;95347.13;;;5.90;100.00
30339;BME280;795;49.296;11.348;2023-04-15T10:34:29;95359.75;;;6.21;100.00
30339;BME280;795;49.296;11.348;2023-04-15T10:37:09;95392.97;;;6.81;100.00
30339;BME280;795;49.296;11.348;2023-04-15T10:39:40;95390.53;;;6.55;100.00
30339;BME280;795;49.296;11.348;2023-04-15T10:42:18;95284.50;;;5.78;100.00
30339;BME280;795;49.296;11.348;2023-04-15T10:44:50;95319.78;;;5.64;100.00
30339;BME280;795;49.296;11.348;2023-04-15T10:47:20;95320.06;;;5.45;100.00
30339;BME280;795;49.296;11.348;2023-04-15T10:49:57;95404.03;;;5.89;100.00
30339;BME280;795;49.296;11.348;2023-04-15T10:52:28;95408.34;;;5.82;100.00
30339;BME280;795;49.296;11.348;2023-04-15T10:55:21;95347.19;;;5.32;100.00
30339;BME280;795;49.296;11.348;2023-04-15T10:57:53;95422.31;;;5.76;100.00
30339;BME280;795;49.296;11.348;2023-04-15T11:00:27;95390.34;;;5.68;100.00
30339;BME280;795;49.296;11.348;2023-04-15T11:03:04;95433.44;;;5.72;100.00
30339;BME280;795;49.296;11.348;2023-04-15T11:08:12;95403.69;;;5.76;100.00
30339;BME280;795;49.296;11.348;2023-04-15T11:15:44;95385.50;;;5.72;100.00
30339;BME280;795;49.296;11.348;2023-04-15T11:18:24;95390.41;;;5.92;100.00
30339;BME280;795;49.296;11.348;2023-04-15T11:21:06;95393.91;;;6.33;100.00
30339;BME280;795;49.296;11.348;2023-04-15T11:23:41;95475.00;;;6.55;100.00
30339;BME280;795;49.296;11.348;2023-04-15T11:26:13;95438.03;;;6.20;100.00
30339;BME280;795;49.296;11.348;2023-04-15T11:28:45;95441.22;;;6.39;100.00
30339;BME280;795;49.296;11.348;2023-04-15T11:31:17;95392.75;;;6.20;100.00
30339;BME280;795;49.296;11.348;2023-04-15T11:33:54;95445.00;;;6.77;100.00
30339;BME280;795;49.296;11.348;2023-04-15T11:36:29;95336.47;;;5.90;100.00
30339;BME280;795;49.296;11.348;2023-04-15T11:38:59;95453.66;;;6.71;100.00
30339;BME280;795;49.296;11.348;2023-04-15T11:41:26;95458.44;;;7.08;100.00
30339;BME280;795;49.296;11.348;2023-04-15T11:43:53;95443.31;;;6.84;100.00
30339;BME280;795;49.296;11.348;2023-04-15T11:46:28;95409.16;;;6.80;100.00
30339;BME280;795;49.296;11.348;2023-04-15T11:48:56;95379.16;;;6.78;100.00
30339;BME280;795;49.296;11.348;2023-04-15T11:51:24;95411.84;;;7.26;100.00
30339;BME280;795;49.296;11.348;2023-04-15T11:53:51;95377.16;;;7.26;100.00
30339;BME280;795;49.296;11.348;2023-04-15T11:56:24;95432.28;;;7.42;100.00
30339;BME280;795;49.296;11.348;2023-04-15T11:58:57;95429.19;;;7.30;100.00
30339;BME280;795;49.296;11.348;2023-04-15T12:01:46;95350.06;;;6.99;100.00
30339;BME280;795;49.296;11.348;2023-04-15T12:04:17;95403.44;;;7.38;100.00
30339;BME280;795;49.296;11.348;2023-04-15T12:06:51;95410.81;;;7.35;100.00
30339;BME280;795;49.296;11.348;2023-04-15T12:09:18;95435.75;;;7.12;100.00
30339;BME280;795;49.296;11.348;2023-04-15T12:11:56;95446.91;;;7.07;100.00
30339;BME280;795;49.296;11.348;2023-04-15T12:14:31;95455.44;;;7.11;100.00
30339;BME280;795;49.296;11.348;2023-04-15T12:17:01;95463.09;;;7.14;100.00
30339;BME280;795;49.296;11.348;2023-04-15T12:19:36;95436.63;;;6.96;100.00
30339;BME280;795;49.296;11.348;2023-04-15T12:22:09;95423.19;;;6.65;100.00
30339;BME280;795;49.296;11.348;2023-04-15T12:24:38;95457.66;;;6.83;100.00
30339;BME280;795;49.296;11.348;2023-04-15T12:27:11;95446.31;;;6.89;100.00
30339;BME280;795;49.296;11.348;2023-04-15T12:29:41;95471.97;;;7.06;100.00
30339;BME280;795;49.296;11.348;2023-04-15T12:32:15;95467.53;;;7.29;100.00
30339;BME280;795;49.296;11.348;2023-04-15T12:34:52;95436.63;;;7.04;100.00
30339;BME280;795;49.296;11.348;2023-04-15T12:37:20;95435.31;;;6.92;100.00
30339;BME280;795;49.296;11.348;2023-04-15T12:39:49;95371.34;;;6.60;100.00
30339;BME280;795;49.296;11.348;2023-04-15T12:42:17;95482.25;;;7.17;100.00
30339;BME280;795;49.296;11.348;2023-04-15T12:44:46;95481.91;;;7.28;100.00
30339;BME280;795;49.296;11.348;2023-04-15T12:47:13;95482.88;;;7.35;100.00
30339;BME280;795;49.296;11.348;2023-04-15T12:49:40;95478.59;;;7.10;100.00
30339;BME280;795;49.296;11.348;2023-04-15T12:52:07;95472.00;;;6.82;100.00
30339;BME280;795;49.296;11.348;2023-04-15T12:54:34;95489.50;;;6.77;100.00
30339;BME280;795;49.296;11.348;2023-04-15T12:57:03;95387.72;;;6.09;100.00
30339;BME280;795;49.296;11.348;2023-04-15T12:59:34;95498.50;;;6.92;100.00
30339;BME280;795;49.296;11.348;2023-04-15T13:02:01;95458.16;;;6.87;100.00
30339;BME280;795;49.296;11.348;2023-04-15T13:04:29;95505.97;;;7.12;100.00
30339;BME280;795;49.296;11.348;2023-04-15T13:06:58;95479.13;;;7.14;100.00
30339;BME280;795;49.296;11.348;2023-04-15T13:09:25;95503.94;;;7.30;100.00
30339;BME280;795;49.296;11.348;2023-04-15T13:11:52;95504.38;;;7.42;100.00
30339;BME280;795;49.296;11.348;2023-04-15T13:14:20;95474.88;;;7.35;100.00
30339;BME280;795;49.296;11.348;2023-04-15T13:16:47;95502.75;;;7.33;100.00
30339;BME280;795;49.296;11.348;2023-04-15T13:19:15;95476.78;;;7.11;100.00
30339;BME280;795;49.296;11.348;2023-04-15T13:21:43;95505.09;;;7.28;100.00
30339;BME280;795;49.296;11.348;2023-04-15T13:24:16;95506.72;;;7.37;100.00
30339;BME280;795;49.296;11.348;2023-04-15T13:26:43;95473.94;;;7.12;100.00
30339;BME280;795;49.296;11.348;2023-04-15T13:29:10;95463.25;;;7.12;100.00